Terminal Aerodrome Forecast
Issued by NWS Northern Indiana

Home | Current Version | Previous Version | Graphics & Text | Print | Product List | Glossary On
Versions: 1 2 3 4 5 6 7 8 9 10 11 12 13 14 15 16
000
FTUS43 KIWX 150100 AAA
TAFFWA
TAF AMD
KFWA 150113Z 1501/1524 31013G22KT 4SM -RASN OVC015
      TEMPO 1501/1503 2SM -SNPL OVC010
     FM150300 34013KT 3SM -SN OVC015
      TEMPO 1504/1508 1SM -SN OVC010
     FM150900 32012KT P6SM OVC015
     FM151200 33013G21KT P6SM BKN035=

USA.gov is the U.S. government's official web portal to all federal, state and local government web resources and services.